CheckWX is a tool to help pilots better visualize weather data.  It is not intended as a substitute for an official pre-flight weather briefing.

08:54:42 UTC

DAOO METAR
Es Senia Airport
Oran, Algeria
Current

25 mins ago

DAOO 220830Z 20001KT 3000 BR BKN013 07/06 Q1032
Observed
Feb-22 @ 08:30 UTC
Wind
  • 200° at 1 KTS
Visibility
2,993 meters
Flight Rules
IFR
Conditions
Mist
Cloud Levels
  • Broken at 1,300' AGL
Temperature
C / 45°F
Dewpoint
C / 43°F
Humidity
93%
Altimeter
30.47" Hg
Pressure
1031.91 hPa
Previous

55 mins ago

DAOO 220800Z 00000KT 3000 BR SCT010 SCT026 06/06 Q1032
Observed
Feb-22 @ 08:00 UTC
Visibility
2,993 meters
Flight Rules
IFR
Conditions
Mist
Cloud Levels
  • Scattered at 1,000' AGL
  • Scattered at 2,600' AGL
Temperature
C / 43°F
Dewpoint
C / 43°F
Humidity
100%
Altimeter
30.47" Hg
Pressure
1031.91 hPa
Previous

1 hour ago

DAOO 220730Z 18002KT 3000 BR FEW010 BKN026 07/06 Q1031
Observed
Feb-22 @ 07:30 UTC
Wind
  • 180° at 2 KTS
Visibility
2,993 meters
Flight Rules
IFR
Conditions
Mist
Cloud Levels
  • Few at 1,000' AGL
  • Broken at 2,600' AGL
Temperature
C / 45°F
Dewpoint
C / 43°F
Humidity
93%
Altimeter
30.44" Hg
Pressure
1030.91 hPa